sensor_id;sensor_type;location;lat;lon;timestamp;P1;durP1;ratioP1;P2;durP2;ratioP2
38843;SDS011;24596;48.080;8.362;2023-05-13T00:01:31;18.65;;;12.15;;
38843;SDS011;24596;48.080;8.362;2023-05-13T00:04:02;15.52;;;11.68;;
38843;SDS011;24596;48.080;8.362;2023-05-13T00:06:27;16.15;;;11.10;;
38843;SDS011;24596;48.080;8.362;2023-05-13T00:08:53;15.98;;;11.35;;
38843;SDS011;24596;48.080;8.362;2023-05-13T00:11:18;17.33;;;11.35;;
38843;SDS011;24596;48.080;8.362;2023-05-13T00:13:43;15.80;;;11.55;;
38843;SDS011;24596;48.080;8.362;2023-05-13T00:16:08;15.63;;;11.07;;
38843;SDS011;24596;48.080;8.362;2023-05-13T00:18:33;18.65;;;12.35;;
38843;SDS011;24596;48.080;8.362;2023-05-13T00:20:59;16.60;;;11.60;;
38843;SDS011;24596;48.080;8.362;2023-05-13T00:23:24;13.98;;;10.85;;
38843;SDS011;24596;48.080;8.362;2023-05-13T00:25:49;17.58;;;11.20;;
38843;SDS011;24596;48.080;8.362;2023-05-13T00:28:14;15.48;;;11.52;;
38843;SDS011;24596;48.080;8.362;2023-05-13T00:30:43;16.42;;;11.75;;
38843;SDS011;24596;48.080;8.362;2023-05-13T00:33:09;16.30;;;11.35;;
38843;SDS011;24596;48.080;8.362;2023-05-13T00:35:34;17.58;;;12.18;;
38843;SDS011;24596;48.080;8.362;2023-05-13T00:38:00;16.83;;;12.13;;
38843;SDS011;24596;48.080;8.362;2023-05-13T00:40:25;13.95;;;10.70;;
38843;SDS011;24596;48.080;8.362;2023-05-13T00:42:50;15.43;;;11.30;;
38843;SDS011;24596;48.080;8.362;2023-05-13T00:45:16;16.08;;;10.73;;
38843;SDS011;24596;48.080;8.362;2023-05-13T00:47:41;13.88;;;9.80;;
38843;SDS011;24596;48.080;8.362;2023-05-13T00:50:07;14.57;;;10.38;;
38843;SDS011;24596;48.080;8.362;2023-05-13T00:52:33;14.13;;;10.75;;
38843;SDS011;24596;48.080;8.362;2023-05-13T00:54:58;13.65;;;10.25;;
38843;SDS011;24596;48.080;8.362;2023-05-13T00:57:24;16.75;;;10.70;;
38843;SDS011;24596;48.080;8.362;2023-05-13T00:59:49;14.85;;;10.73;;
38843;SDS011;24596;48.080;8.362;2023-05-13T01:04:58;14.60;;;10.65;;
38843;SDS011;24596;48.080;8.362;2023-05-13T01:12:32;15.35;;;9.70;;
38843;SDS011;24596;48.080;8.362;2023-05-13T01:15:06;15.25;;;9.98;;
38843;SDS011;24596;48.080;8.362;2023-05-13T01:18:07;14.52;;;10.25;;
38843;SDS011;24596;48.080;8.362;2023-05-13T01:22:50;13.40;;;9.88;;
38843;SDS011;24596;48.080;8.362;2023-05-13T01:25:15;13.57;;;10.05;;
38843;SDS011;24596;48.080;8.362;2023-05-13T01:27:41;16.58;;;8.98;;
38843;SDS011;24596;48.080;8.362;2023-05-13T01:30:06;12.90;;;9.02;;
38843;SDS011;24596;48.080;8.362;2023-05-13T01:32:32;14.93;;;9.60;;
38843;SDS011;24596;48.080;8.362;2023-05-13T01:34:58;15.60;;;9.88;;
38843;SDS011;24596;48.080;8.362;2023-05-13T01:37:24;13.90;;;9.38;;
38843;SDS011;24596;48.080;8.362;2023-05-13T01:39:50;13.23;;;9.45;;
38843;SDS011;24596;48.080;8.362;2023-05-13T01:42:15;14.07;;;9.75;;
38843;SDS011;24596;48.080;8.362;2023-05-13T01:44:40;13.63;;;9.55;;
38843;SDS011;24596;48.080;8.362;2023-05-13T01:47:06;12.45;;;8.73;;
38843;SDS011;24596;48.080;8.362;2023-05-13T01:49:31;16.17;;;10.07;;
38843;SDS011;24596;48.080;8.362;2023-05-13T01:51:56;13.40;;;9.52;;
38843;SDS011;24596;48.080;8.362;2023-05-13T01:54:21;13.48;;;9.45;;
38843;SDS011;24596;48.080;8.362;2023-05-13T01:56:47;13.10;;;9.73;;
38843;SDS011;24596;48.080;8.362;2023-05-13T01:59:12;16.02;;;9.68;;
38843;SDS011;24596;48.080;8.362;2023-05-13T02:01:37;12.98;;;9.40;;
38843;SDS011;24596;48.080;8.362;2023-05-13T02:04:04;13.60;;;9.48;;
38843;SDS011;24596;48.080;8.362;2023-05-13T02:06:30;14.15;;;10.27;;
38843;SDS011;24596;48.080;8.362;2023-05-13T02:08:56;14.13;;;9.85;;
38843;SDS011;24596;48.080;8.362;2023-05-13T02:11:21;17.33;;;9.63;;
38843;SDS011;24596;48.080;8.362;2023-05-13T02:13:46;12.32;;;9.18;;
38843;SDS011;24596;48.080;8.362;2023-05-13T02:16:15;14.30;;;8.82;;
38843;SDS011;24596;48.080;8.362;2023-05-13T02:18:41;15.98;;;10.02;;
38843;SDS011;24596;48.080;8.362;2023-05-13T02:21:06;12.82;;;8.95;;
38843;SDS011;24596;48.080;8.362;2023-05-13T02:23:32;13.30;;;10.02;;
38843;SDS011;24596;48.080;8.362;2023-05-13T02:25:57;15.50;;;9.18;;
38843;SDS011;24596;48.080;8.362;2023-05-13T02:28:22;13.77;;;9.25;;
38843;SDS011;24596;48.080;8.362;2023-05-13T02:30:47;14.07;;;9.63;;
38843;SDS011;24596;48.080;8.362;2023-05-13T02:33:12;14.57;;;9.80;;
38843;SDS011;24596;48.080;8.362;2023-05-13T02:35:38;11.82;;;8.98;;
38843;SDS011;24596;48.080;8.362;2023-05-13T02:38:03;13.38;;;9.98;;
38843;SDS011;24596;48.080;8.362;2023-05-13T02:40:28;13.45;;;9.10;;
38843;SDS011;24596;48.080;8.362;2023-05-13T02:42:53;13.23;;;9.43;;
38843;SDS011;24596;48.080;8.362;2023-05-13T02:45:19;15.63;;;9.20;;
38843;SDS011;24596;48.080;8.362;2023-05-13T02:47:44;13.93;;;9.88;;
38843;SDS011;24596;48.080;8.362;2023-05-13T02:50:09;15.88;;;9.68;;
38843;SDS011;24596;48.080;8.362;2023-05-13T02:52:36;15.60;;;10.50;;
38843;SDS011;24596;48.080;8.362;2023-05-13T02:55:03;13.50;;;9.02;;
38843;SDS011;24596;48.080;8.362;2023-05-13T02:57:28;14.00;;;9.45;;
38843;SDS011;24596;48.080;8.362;2023-05-13T02:59:53;15.23;;;9.98;;
38843;SDS011;24596;48.080;8.362;2023-05-13T03:02:18;14.18;;;10.10;;
38843;SDS011;24596;48.080;8.362;2023-05-13T03:04:43;13.15;;;9.55;;
38843;SDS011;24596;48.080;8.362;2023-05-13T03:07:09;13.90;;;8.85;;
38843;SDS011;24596;48.080;8.362;2023-05-13T03:09:34;15.65;;;9.40;;
38843;SDS011;24596;48.080;8.362;2023-05-13T03:12:03;12.50;;;8.65;;
38843;SDS011;24596;48.080;8.362;2023-05-13T03:14:28;13.07;;;9.82;;
38843;SDS011;24596;48.080;8.362;2023-05-13T03:16:53;14.63;;;9.40;;
38843;SDS011;24596;48.080;8.362;2023-05-13T03:19:19;14.82;;;8.75;;
38843;SDS011;24596;48.080;8.362;2023-05-13T03:21:44;12.85;;;8.52;;
38843;SDS011;24596;48.080;8.362;2023-05-13T03:24:09;15.13;;;8.75;;
38843;SDS011;24596;48.080;8.362;2023-05-13T03:26:35;14.10;;;8.45;;
38843;SDS011;24596;48.080;8.362;2023-05-13T03:29:00;12.80;;;8.07;;
38843;SDS011;24596;48.080;8.362;2023-05-13T03:31:26;11.73;;;8.77;;
38843;SDS011;24596;48.080;8.362;2023-05-13T03:33:51;14.20;;;9.10;;
38843;SDS011;24596;48.080;8.362;2023-05-13T03:36:16;12.02;;;8.48;;
38843;SDS011;24596;48.080;8.362;2023-05-13T03:38:41;14.00;;;9.05;;
38843;SDS011;24596;48.080;8.362;2023-05-13T03:41:07;17.00;;;9.93;;
38843;SDS011;24596;48.080;8.362;2023-05-13T03:43:32;14.50;;;10.35;;
38843;SDS011;24596;48.080;8.362;2023-05-13T03:45:57;14.02;;;10.25;;
38843;SDS011;24596;48.080;8.362;2023-05-13T03:48:23;13.48;;;10.40;;
38843;SDS011;24596;48.080;8.362;2023-05-13T03:50:48;15.27;;;10.95;;
38843;SDS011;24596;48.080;8.362;2023-05-13T03:53:14;13.38;;;10.15;;
38843;SDS011;24596;48.080;8.362;2023-05-13T03:55:39;14.07;;;10.40;;
38843;SDS011;24596;48.080;8.362;2023-05-13T03:58:11;15.93;;;11.52;;
38843;SDS011;24596;48.080;8.362;2023-05-13T04:00:38;17.08;;;11.55;;
38843;SDS011;24596;48.080;8.362;2023-05-13T04:03:03;15.07;;;10.75;;
38843;SDS011;24596;48.080;8.362;2023-05-13T04:05:28;14.82;;;10.88;;
38843;SDS011;24596;48.080;8.362;2023-05-13T04:07:53;19.20;;;11.57;;
38843;SDS011;24596;48.080;8.362;2023-05-13T04:10:19;15.80;;;11.80;;
38843;SDS011;24596;48.080;8.362;2023-05-13T04:12:44;19.25;;;12.52;;
38843;SDS011;24596;48.080;8.362;2023-05-13T04:15:09;17.08;;;12.90;;
38843;SDS011;24596;48.080;8.362;2023-05-13T04:17:34;19.88;;;13.32;;
38843;SDS011;24596;48.080;8.362;2023-05-13T04:19:59;18.10;;;12.57;;
38843;SDS011;24596;48.080;8.362;2023-05-13T04:22:25;18.80;;;12.88;;
38843;SDS011;24596;48.080;8.362;2023-05-13T04:24:50;18.23;;;13.63;;
38843;SDS011;24596;48.080;8.362;2023-05-13T04:27:20;17.92;;;12.38;;
38843;SDS011;24596;48.080;8.362;2023-05-13T04:29:45;16.33;;;12.40;;
38843;SDS011;24596;48.080;8.362;2023-05-13T04:32:11;19.25;;;13.57;;
38843;SDS011;24596;48.080;8.362;2023-05-13T04:34:40;17.05;;;12.75;;
38843;SDS011;24596;48.080;8.362;2023-05-13T04:37:05;19.20;;;12.63;;
38843;SDS011;24596;48.080;8.362;2023-05-13T04:39:30;17.80;;;12.68;;
38843;SDS011;24596;48.080;8.362;2023-05-13T04:41:55;17.05;;;12.40;;
38843;SDS011;24596;48.080;8.362;2023-05-13T04:44:20;17.10;;;12.82;;
38843;SDS011;24596;48.080;8.362;2023-05-13T04:46:46;17.08;;;13.07;;
38843;SDS011;24596;48.080;8.362;2023-05-13T04:49:11;17.42;;;13.02;;
38843;SDS011;24596;48.080;8.362;2023-05-13T04:51:36;16.10;;;11.77;;
38843;SDS011;24596;48.080;8.362;2023-05-13T04:54:01;17.15;;;13.07;;
38843;SDS011;24596;48.080;8.362;2023-05-13T04:56:27;16.08;;;12.27;;
38843;SDS011;24596;48.080;8.362;2023-05-13T04:58:52;19.88;;;14.65;;
38843;SDS011;24596;48.080;8.362;2023-05-13T05:01:17;17.08;;;13.40;;
38843;SDS011;24596;48.080;8.362;2023-05-13T05:03:42;18.02;;;13.73;;
38843;SDS011;24596;48.080;8.362;2023-05-13T05:06:08;19.13;;;13.05;;
38843;SDS011;24596;48.080;8.362;2023-05-13T05:08:33;16.83;;;12.60;;
38843;SDS011;24596;48.080;8.362;2023-05-13T05:10:58;20.40;;;12.95;;
38843;SDS011;24596;48.080;8.362;2023-05-13T05:13:24;21.25;;;12.98;;
38843;SDS011;24596;48.080;8.362;2023-05-13T05:15:49;18.88;;;13.10;;
38843;SDS011;24596;48.080;8.362;2023-05-13T05:18:14;17.65;;;13.70;;
38843;SDS011;24596;48.080;8.362;2023-05-13T05:20:39;18.70;;;13.27;;
38843;SDS011;24596;48.080;8.362;2023-05-13T05:23:04;17.65;;;12.27;;
38843;SDS011;24596;48.080;8.362;2023-05-13T05:25:31;15.70;;;12.18;;
38843;SDS011;24596;48.080;8.362;2023-05-13T05:27:56;16.50;;;12.15;;
38843;SDS011;24596;48.080;8.362;2023-05-13T05:30:22;17.60;;;12.75;;
38843;SDS011;24596;48.080;8.362;2023-05-13T05:32:47;18.35;;;13.43;;
38843;SDS011;24596;48.080;8.362;2023-05-13T05:35:12;17.33;;;12.02;;
38843;SDS011;24596;48.080;8.362;2023-05-13T05:37:39;16.35;;;11.70;;
38843;SDS011;24596;48.080;8.362;2023-05-13T05:40:05;14.85;;;11.15;;
38843;SDS011;24596;48.080;8.362;2023-05-13T05:42:30;17.65;;;12.88;;
38843;SDS011;24596;48.080;8.362;2023-05-13T05:44:55;16.75;;;12.40;;
38843;SDS011;24596;48.080;8.362;2023-05-13T05:47:21;17.13;;;12.25;;
38843;SDS011;24596;48.080;8.362;2023-05-13T05:49:46;16.20;;;11.85;;
38843;SDS011;24596;48.080;8.362;2023-05-13T05:52:11;15.93;;;11.00;;
38843;SDS011;24596;48.080;8.362;2023-05-13T05:54:37;13.13;;;9.88;;
38843;SDS011;24596;48.080;8.362;2023-05-13T05:57:02;14.73;;;10.43;;
38843;SDS011;24596;48.080;8.362;2023-05-13T05:59:27;14.43;;;10.20;;
38843;SDS011;24596;48.080;8.362;2023-05-13T06:01:53;14.48;;;10.35;;
38843;SDS011;24596;48.080;8.362;2023-05-13T06:04:18;12.82;;;9.38;;
38843;SDS011;24596;48.080;8.362;2023-05-13T06:06:43;14.55;;;8.88;;
38843;SDS011;24596;48.080;8.362;2023-05-13T06:09:08;12.60;;;9.60;;
38843;SDS011;24596;48.080;8.362;2023-05-13T06:11:34;12.65;;;9.35;;
38843;SDS011;24596;48.080;8.362;2023-05-13T06:13:59;13.20;;;8.50;;
38843;SDS011;24596;48.080;8.362;2023-05-13T06:16:25;12.18;;;8.23;;
38843;SDS011;24596;48.080;8.362;2023-05-13T06:18:50;11.25;;;7.65;;
38843;SDS011;24596;48.080;8.362;2023-05-13T06:21:15;12.52;;;8.55;;
38843;SDS011;24596;48.080;8.362;2023-05-13T06:23:40;11.30;;;8.48;;
38843;SDS011;24596;48.080;8.362;2023-05-13T06:26:06;17.98;;;8.48;;
38843;SDS011;24596;48.080;8.362;2023-05-13T06:28:31;10.60;;;7.47;;
38843;SDS011;24596;48.080;8.362;2023-05-13T06:30:56;9.85;;;7.10;;
38843;SDS011;24596;48.080;8.362;2023-05-13T06:33:22;10.75;;;6.57;;
38843;SDS011;24596;48.080;8.362;2023-05-13T06:35:47;8.65;;;6.07;;
38843;SDS011;24596;48.080;8.362;2023-05-13T06:38:13;8.43;;;5.57;;
38843;SDS011;24596;48.080;8.362;2023-05-13T06:40:41;10.73;;;6.65;;
38843;SDS011;24596;48.080;8.362;2023-05-13T06:43:06;11.50;;;6.60;;
38843;SDS011;24596;48.080;8.362;2023-05-13T06:45:32;8.10;;;4.88;;
38843;SDS011;24596;48.080;8.362;2023-05-13T06:47:57;6.43;;;4.10;;
38843;SDS011;24596;48.080;8.362;2023-05-13T06:50:22;6.82;;;4.20;;
38843;SDS011;24596;48.080;8.362;2023-05-13T06:52:47;7.05;;;4.93;;
38843;SDS011;24596;48.080;8.362;2023-05-13T06:55:13;7.75;;;4.97;;
38843;SDS011;24596;48.080;8.362;2023-05-13T06:57:38;8.68;;;5.47;;
38843;SDS011;24596;48.080;8.362;2023-05-13T07:00:04;9.50;;;4.90;;
38843;SDS011;24596;48.080;8.362;2023-05-13T07:02:29;9.70;;;5.35;;
38843;SDS011;24596;48.080;8.362;2023-05-13T07:04:54;7.38;;;4.88;;
38843;SDS011;24596;48.080;8.362;2023-05-13T07:07:20;7.35;;;4.65;;
38843;SDS011;24596;48.080;8.362;2023-05-13T07:09:45;9.57;;;5.60;;
38843;SDS011;24596;48.080;8.362;2023-05-13T07:12:10;8.55;;;5.40;;
38843;SDS011;24596;48.080;8.362;2023-05-13T07:14:35;7.47;;;5.10;;
38843;SDS011;24596;48.080;8.362;2023-05-13T07:17:01;8.40;;;5.68;;
38843;SDS011;24596;48.080;8.362;2023-05-13T07:19:27;8.18;;;6.22;;
38843;SDS011;24596;48.080;8.362;2023-05-13T07:21:52;8.85;;;6.00;;
38843;SDS011;24596;48.080;8.362;2023-05-13T07:24:17;8.23;;;5.90;;
38843;SDS011;24596;48.080;8.362;2023-05-13T07:26:43;8.77;;;5.85;;
38843;SDS011;24596;48.080;8.362;2023-05-13T07:29:08;9.88;;;6.40;;
38843;SDS011;24596;48.080;8.362;2023-05-13T07:31:33;9.75;;;6.82;;
38843;SDS011;24596;48.080;8.362;2023-05-13T07:33:58;10.82;;;7.40;;
38843;SDS011;24596;48.080;8.362;2023-05-13T07:36:24;11.65;;;8.40;;
38843;SDS011;24596;48.080;8.362;2023-05-13T07:38:49;12.88;;;9.75;;
38843;SDS011;24596;48.080;8.362;2023-05-13T07:41:14;14.20;;;9.43;;
38843;SDS011;24596;48.080;8.362;2023-05-13T07:43:39;14.88;;;9.23;;
38843;SDS011;24596;48.080;8.362;2023-05-13T07:46:05;11.13;;;8.60;;
38843;SDS011;24596;48.080;8.362;2023-05-13T07:48:30;12.38;;;8.50;;
38843;SDS011;24596;48.080;8.362;2023-05-13T07:50:55;15.50;;;8.13;;
38843;SDS011;24596;48.080;8.362;2023-05-13T07:53:21;16.25;;;10.50;;
38843;SDS011;24596;48.080;8.362;2023-05-13T07:55:47;14.73;;;9.88;;
38843;SDS011;24596;48.080;8.362;2023-05-13T07:58:12;13.80;;;9.70;;
38843;SDS011;24596;48.080;8.362;2023-05-13T08:00:37;13.45;;;9.60;;
38843;SDS011;24596;48.080;8.362;2023-05-13T08:03:03;13.02;;;9.55;;
38843;SDS011;24596;48.080;8.362;2023-05-13T08:05:28;15.20;;;9.77;;
38843;SDS011;24596;48.080;8.362;2023-05-13T08:07:53;16.40;;;10.48;;
38843;SDS011;24596;48.080;8.362;2023-05-13T08:10:19;13.52;;;10.63;;
38843;SDS011;24596;48.080;8.362;2023-05-13T08:12:44;14.43;;;9.63;;
38843;SDS011;24596;48.080;8.362;2023-05-13T08:15:14;16.75;;;11.20;;
38843;SDS011;24596;48.080;8.362;2023-05-13T08:17:40;14.60;;;10.65;;
38843;SDS011;24596;48.080;8.362;2023-05-13T08:20:06;11.82;;;9.27;;
38843;SDS011;24596;48.080;8.362;2023-05-13T08:22:31;12.40;;;8.75;;
38843;SDS011;24596;48.080;8.362;2023-05-13T08:24:56;10.85;;;8.25;;
38843;SDS011;24596;48.080;8.362;2023-05-13T08:27:24;11.45;;;7.80;;
38843;SDS011;24596;48.080;8.362;2023-05-13T08:29:50;10.23;;;7.28;;
38843;SDS011;24596;48.080;8.362;2023-05-13T08:32:15;11.00;;;8.02;;
38843;SDS011;24596;48.080;8.362;2023-05-13T08:34:40;9.80;;;7.15;;
38843;SDS011;24596;48.080;8.362;2023-05-13T08:37:05;10.40;;;7.45;;
38843;SDS011;24596;48.080;8.362;2023-05-13T08:39:31;10.65;;;7.38;;
38843;SDS011;24596;48.080;8.362;2023-05-13T08:41:56;12.45;;;7.55;;
38843;SDS011;24596;48.080;8.362;2023-05-13T08:44:23;11.88;;;8.88;;
38843;SDS011;24596;48.080;8.362;2023-05-13T08:46:52;12.57;;;7.60;;
38843;SDS011;24596;48.080;8.362;2023-05-13T08:49:19;8.75;;;6.95;;
38843;SDS011;24596;48.080;8.362;2023-05-13T08:51:45;9.48;;;6.68;;
38843;SDS011;24596;48.080;8.362;2023-05-13T08:54:10;9.75;;;5.78;;
38843;SDS011;24596;48.080;8.362;2023-05-13T08:56:36;9.25;;;6.30;;
38843;SDS011;24596;48.080;8.362;2023-05-13T08:59:01;9.68;;;6.10;;
38843;SDS011;24596;48.080;8.362;2023-05-13T09:01:26;8.95;;;5.45;;
38843;SDS011;24596;48.080;8.362;2023-05-13T09:04:00;8.23;;;5.00;;
38843;SDS011;24596;48.080;8.362;2023-05-13T09:06:26;7.88;;;5.47;;
38843;SDS011;24596;48.080;8.362;2023-05-13T09:08:52;8.43;;;6.10;;
38843;SDS011;24596;48.080;8.362;2023-05-13T09:11:18;8.85;;;6.03;;
38843;SDS011;24596;48.080;8.362;2023-05-13T09:13:43;9.88;;;6.47;;
38843;SDS011;24596;48.080;8.362;2023-05-13T09:16:09;8.95;;;6.40;;
38843;SDS011;24596;48.080;8.362;2023-05-13T09:18:36;9.77;;;5.75;;
38843;SDS011;24596;48.080;8.362;2023-05-13T09:21:22;8.52;;;5.65;;
38843;SDS011;24596;48.080;8.362;2023-05-13T09:23:48;9.00;;;5.75;;
38843;SDS011;24596;48.080;8.362;2023-05-13T09:26:26;7.63;;;5.80;;
38843;SDS011;24596;48.080;8.362;2023-05-13T09:29:12;11.20;;;5.72;;
38843;SDS011;24596;48.080;8.362;2023-05-13T09:31:37;8.30;;;5.53;;
38843;SDS011;24596;48.080;8.362;2023-05-13T09:34:02;8.48;;;4.82;;
38843;SDS011;24596;48.080;8.362;2023-05-13T09:36:27;7.25;;;5.07;;
38843;SDS011;24596;48.080;8.362;2023-05-13T09:38:53;6.85;;;4.45;;
38843;SDS011;24596;48.080;8.362;2023-05-13T09:41:19;9.85;;;5.95;;
38843;SDS011;24596;48.080;8.362;2023-05-13T09:43:44;11.05;;;5.45;;
38843;SDS011;24596;48.080;8.362;2023-05-13T09:46:09;9.05;;;5.50;;
38843;SDS011;24596;48.080;8.362;2023-05-13T09:48:35;8.52;;;6.22;;
38843;SDS011;24596;48.080;8.362;2023-05-13T09:51:02;8.93;;;6.07;;
38843;SDS011;24596;48.080;8.362;2023-05-13T09:53:27;9.80;;;6.40;;
38843;SDS011;24596;48.080;8.362;2023-05-13T09:55:53;9.48;;;6.68;;
38843;SDS011;24596;48.080;8.362;2023-05-13T09:58:19;9.23;;;5.90;;
38843;SDS011;24596;48.080;8.362;2023-05-13T10:00:45;9.00;;;6.43;;
38843;SDS011;24596;48.080;8.362;2023-05-13T10:03:11;9.35;;;5.65;;
38843;SDS011;24596;48.080;8.362;2023-05-13T10:05:37;11.23;;;6.18;;
38843;SDS011;24596;48.080;8.362;2023-05-13T10:08:02;9.73;;;6.60;;
38843;SDS011;24596;48.080;8.362;2023-05-13T10:10:29;9.90;;;5.57;;
38843;SDS011;24596;48.080;8.362;2023-05-13T10:12:55;8.38;;;5.90;;
38843;SDS011;24596;48.080;8.362;2023-05-13T10:15:21;8.07;;;5.70;;
38843;SDS011;24596;48.080;8.362;2023-05-13T10:17:46;8.13;;;6.07;;
38843;SDS011;24596;48.080;8.362;2023-05-13T10:20:12;10.23;;;6.50;;
38843;SDS011;24596;48.080;8.362;2023-05-13T10:22:38;9.13;;;6.15;;
38843;SDS011;24596;48.080;8.362;2023-05-13T10:25:04;8.63;;;6.13;;
38843;SDS011;24596;48.080;8.362;2023-05-13T10:27:31;7.63;;;5.88;;
38843;SDS011;24596;48.080;8.362;2023-05-13T10:29:57;8.93;;;6.10;;
38843;SDS011;24596;48.080;8.362;2023-05-13T10:32:26;8.82;;;5.78;;
38843;SDS011;24596;48.080;8.362;2023-05-13T10:34:53;8.18;;;6.03;;
38843;SDS011;24596;48.080;8.362;2023-05-13T10:40:04;9.87;;;6.03;;
38843;SDS011;24596;48.080;8.362;2023-05-13T10:42:40;8.43;;;5.60;;
38843;SDS011;24596;48.080;8.362;2023-05-13T10:45:08;7.82;;;5.65;;
38843;SDS011;24596;48.080;8.362;2023-05-13T10:47:34;7.10;;;4.78;;
38843;SDS011;24596;48.080;8.362;2023-05-13T10:50:03;8.48;;;5.50;;
38843;SDS011;24596;48.080;8.362;2023-05-13T10:52:47;9.18;;;5.75;;
38843;SDS011;24596;48.080;8.362;2023-05-13T10:55:13;7.25;;;5.25;;
38843;SDS011;24596;48.080;8.362;2023-05-13T10:57:39;9.43;;;5.03;;
38843;SDS011;24596;48.080;8.362;2023-05-13T11:00:11;6.65;;;4.40;;
38843;SDS011;24596;48.080;8.362;2023-05-13T11:02:37;7.03;;;4.70;;
38843;SDS011;24596;48.080;8.362;2023-05-13T11:05:02;7.28;;;4.47;;
38843;SDS011;24596;48.080;8.362;2023-05-13T11:07:28;8.32;;;4.70;;
38843;SDS011;24596;48.080;8.362;2023-05-13T11:09:54;7.00;;;4.40;;
38843;SDS011;24596;48.080;8.362;2023-05-13T11:12:19;7.47;;;4.10;;
38843;SDS011;24596;48.080;8.362;2023-05-13T11:14:44;9.10;;;4.75;;
38843;SDS011;24596;48.080;8.362;2023-05-13T11:17:10;9.57;;;4.90;;
38843;SDS011;24596;48.080;8.362;2023-05-13T11:19:45;9.65;;;5.57;;
38843;SDS011;24596;48.080;8.362;2023-05-13T11:24:39;8.15;;;5.32;;
38843;SDS011;24596;48.080;8.362;2023-05-13T11:29:48;8.57;;;4.97;;
38843;SDS011;24596;48.080;8.362;2023-05-13T11:32:14;8.55;;;5.63;;
38843;SDS011;24596;48.080;8.362;2023-05-13T11:34:48;10.02;;;5.95;;
38843;SDS011;24596;48.080;8.362;2023-05-13T11:37:14;8.43;;;5.90;;
38843;SDS011;24596;48.080;8.362;2023-05-13T11:39:39;13.07;;;6.80;;
38843;SDS011;24596;48.080;8.362;2023-05-13T11:42:08;9.38;;;5.53;;
38843;SDS011;24596;48.080;8.362;2023-05-13T11:44:34;10.35;;;6.68;;
38843;SDS011;24596;48.080;8.362;2023-05-13T11:47:00;10.50;;;6.82;;
38843;SDS011;24596;48.080;8.362;2023-05-13T11:49:29;12.05;;;7.60;;
38843;SDS011;24596;48.080;8.362;2023-05-13T11:51:57;12.60;;;7.82;;
38843;SDS011;24596;48.080;8.362;2023-05-13T11:54:22;13.50;;;8.05;;
38843;SDS011;24596;48.080;8.362;2023-05-13T11:56:47;13.48;;;7.80;;
38843;SDS011;24596;48.080;8.362;2023-05-13T11:59:13;11.15;;;7.68;;
38843;SDS011;24596;48.080;8.362;2023-05-13T12:01:38;12.43;;;8.20;;
38843;SDS011;24596;48.080;8.362;2023-05-13T12:04:04;9.75;;;7.32;;
38843;SDS011;24596;48.080;8.362;2023-05-13T12:06:29;11.85;;;7.85;;
38843;SDS011;24596;48.080;8.362;2023-05-13T12:08:55;11.02;;;7.28;;
38843;SDS011;24596;48.080;8.362;2023-05-13T12:11:20;10.18;;;6.72;;
38843;SDS011;24596;48.080;8.362;2023-05-13T12:13:46;10.77;;;6.25;;
38843;SDS011;24596;48.080;8.362;2023-05-13T12:16:11;9.68;;;5.50;;
38843;SDS011;24596;48.080;8.362;2023-05-13T12:18:36;9.38;;;6.28;;
38843;SDS011;24596;48.080;8.362;2023-05-13T12:21:12;10.73;;;6.30;;
38843;SDS011;24596;48.080;8.362;2023-05-13T12:23:37;10.07;;;6.22;;
38843;SDS011;24596;48.080;8.362;2023-05-13T12:26:05;9.25;;;6.22;;
38843;SDS011;24596;48.080;8.362;2023-05-13T12:28:31;10.50;;;6.97;;
38843;SDS011;24596;48.080;8.362;2023-05-13T12:31:03;9.70;;;6.65;;
38843;SDS011;24596;48.080;8.362;2023-05-13T12:33:30;13.82;;;6.70;;
38843;SDS011;24596;48.080;8.362;2023-05-13T12:38:40;10.70;;;7.13;;
38843;SDS011;24596;48.080;8.362;2023-05-13T12:41:16;10.35;;;6.57;;
38843;SDS011;24596;48.080;8.362;2023-05-13T12:43:42;12.35;;;6.70;;
38843;SDS011;24596;48.080;8.362;2023-05-13T12:46:07;10.57;;;6.28;;
38843;SDS011;24596;48.080;8.362;2023-05-13T12:48:32;11.23;;;6.90;;
38843;SDS011;24596;48.080;8.362;2023-05-13T12:50:57;12.05;;;6.70;;
38843;SDS011;24596;48.080;8.362;2023-05-13T12:53:23;10.65;;;7.30;;
38843;SDS011;24596;48.080;8.362;2023-05-13T12:55:48;10.57;;;7.05;;
38843;SDS011;24596;48.080;8.362;2023-05-13T12:58:13;10.93;;;6.80;;
38843;SDS011;24596;48.080;8.362;2023-05-13T13:00:39;11.05;;;6.43;;
38843;SDS011;24596;48.080;8.362;2023-05-13T13:03:04;9.20;;;6.18;;
38843;SDS011;24596;48.080;8.362;2023-05-13T13:05:29;8.88;;;6.07;;
38843;SDS011;24596;48.080;8.362;2023-05-13T13:07:55;17.10;;;7.10;;
38843;SDS011;24596;48.080;8.362;2023-05-13T13:10:20;13.43;;;6.00;;
38843;SDS011;24596;48.080;8.362;2023-05-13T13:12:46;9.90;;;6.03;;
38843;SDS011;24596;48.080;8.362;2023-05-13T13:15:11;12.45;;;5.82;;
38843;SDS011;24596;48.080;8.362;2023-05-13T13:17:36;11.23;;;6.60;;
38843;SDS011;24596;48.080;8.362;2023-05-13T13:20:02;9.90;;;6.75;;
38843;SDS011;24596;48.080;8.362;2023-05-13T13:22:28;12.93;;;6.55;;
38843;SDS011;24596;48.080;8.362;2023-05-13T13:24:54;10.02;;;6.22;;
38843;SDS011;24596;48.080;8.362;2023-05-13T13:27:19;9.93;;;6.47;;
38843;SDS011;24596;48.080;8.362;2023-05-13T13:29:44;10.20;;;5.85;;
38843;SDS011;24596;48.080;8.362;2023-05-13T13:32:09;10.98;;;6.80;;
38843;SDS011;24596;48.080;8.362;2023-05-13T13:34:35;8.90;;;5.80;;
38843;SDS011;24596;48.080;8.362;2023-05-13T13:37:01;11.40;;;7.53;;
38843;SDS011;24596;48.080;8.362;2023-05-13T13:39:26;11.05;;;6.93;;
38843;SDS011;24596;48.080;8.362;2023-05-13T13:41:51;10.30;;;6.75;;
38843;SDS011;24596;48.080;8.362;2023-05-13T13:44:16;15.95;;;10.70;;
38843;SDS011;24596;48.080;8.362;2023-05-13T13:46:42;18.02;;;10.95;;
38843;SDS011;24596;48.080;8.362;2023-05-13T13:49:07;12.27;;;8.40;;
38843;SDS011;24596;48.080;8.362;2023-05-13T13:51:32;13.60;;;8.48;;
38843;SDS011;24596;48.080;8.362;2023-05-13T13:54:04;12.05;;;8.45;;
38843;SDS011;24596;48.080;8.362;2023-05-13T13:56:29;13.30;;;9.23;;
38843;SDS011;24596;48.080;8.362;2023-05-13T13:58:54;16.17;;;8.75;;
38843;SDS011;24596;48.080;8.362;2023-05-13T14:01:20;15.82;;;9.20;;
38843;SDS011;24596;48.080;8.362;2023-05-13T14:03:47;18.23;;;9.50;;
38843;SDS011;24596;48.080;8.362;2023-05-13T14:06:13;13.70;;;9.20;;
38843;SDS011;24596;48.080;8.362;2023-05-13T14:08:38;16.58;;;10.13;;
38843;SDS011;24596;48.080;8.362;2023-05-13T14:11:03;16.92;;;10.68;;
38843;SDS011;24596;48.080;8.362;2023-05-13T14:13:28;14.98;;;9.93;;
38843;SDS011;24596;48.080;8.362;2023-05-13T14:15:54;16.00;;;9.68;;
38843;SDS011;24596;48.080;8.362;2023-05-13T14:18:19;13.57;;;9.32;;
38843;SDS011;24596;48.080;8.362;2023-05-13T14:20:44;13.70;;;8.93;;
38843;SDS011;24596;48.080;8.362;2023-05-13T14:23:11;18.42;;;9.93;;
38843;SDS011;24596;48.080;8.362;2023-05-13T14:25:36;13.18;;;8.80;;
38843;SDS011;24596;48.080;8.362;2023-05-13T14:28:01;14.25;;;9.50;;
38843;SDS011;24596;48.080;8.362;2023-05-13T14:30:27;15.95;;;10.65;;
38843;SDS011;24596;48.080;8.362;2023-05-13T14:32:52;14.73;;;9.57;;
38843;SDS011;24596;48.080;8.362;2023-05-13T14:35:17;14.85;;;10.25;;
38843;SDS011;24596;48.080;8.362;2023-05-13T14:37:42;15.75;;;10.40;;
38843;SDS011;24596;48.080;8.362;2023-05-13T14:40:08;17.80;;;10.48;;
38843;SDS011;24596;48.080;8.362;2023-05-13T14:42:33;17.95;;;10.23;;
38843;SDS011;24596;48.080;8.362;2023-05-13T14:44:58;17.45;;;10.20;;
38843;SDS011;24596;48.080;8.362;2023-05-13T14:47:24;16.90;;;10.45;;